createdAt,value
2019-01-09T00:00:01.924Z,84.79
2019-01-09T00:03:11.534Z,84.92
2019-01-09T00:06:01.530Z,85.56
2019-01-09T00:08:48.691Z,86.46
2019-01-09T00:11:20.766Z,87.11
2019-01-09T00:13:49.951Z,86.92
2019-01-09T00:16:39.063Z,86.45
2019-01-09T00:22:09.183Z,87.49
2019-01-09T00:40:10.121Z,88.65
2019-01-09T00:42:42.122Z,89.31
2019-01-09T00:45:12.344Z,90.15
2019-01-09T00:53:45.096Z,90.46
2019-01-09T00:56:13.918Z,91.14
2019-01-09T00:58:43.021Z,91.95
2019-01-09T01:01:33.437Z,93.31
2019-01-09T01:08:06.297Z,93.79
2019-01-09T01:11:13.593Z,94.37
2019-01-09T01:17:19.795Z,95.59
2019-01-09T01:20:14.106Z,95.45
2019-01-09T01:26:18.631Z,95.22
2019-01-09T01:29:25.795Z,96.57
2019-01-09T01:32:33.054Z,97.13
2019-01-09T01:35:40.175Z,97.53
2019-01-09T01:38:28.442Z,97.87
2019-01-09T01:41:20.727Z,97.61
2019-01-09T01:44:27.885Z,97.88
2019-01-09T01:47:35.022Z,97.40
2019-01-09T01:50:42.160Z,97.86
2019-01-09T01:53:49.303Z,98.46
2019-01-09T01:56:56.417Z,97.37
2019-01-09T02:00:03.558Z,97.28
2019-01-09T02:02:58.866Z,97.84
2019-01-09T02:06:06.001Z,97.95
2019-01-09T02:09:13.166Z,98.16
2019-01-09T02:12:06.186Z,97.95
2019-01-09T02:15:13.363Z,97.25
2019-01-09T02:18:20.506Z,97.15
2019-01-09T02:21:27.645Z,95.97
2019-01-09T02:24:34.793Z,95.57
2019-01-09T02:27:25.831Z,94.13
2019-01-09T02:30:16.954Z,94.71
2019-01-09T02:32:45.620Z,94.26
2019-01-09T02:35:14.403Z,92.58
2019-01-09T02:37:43.009Z,93.10
2019-01-09T02:40:11.779Z,93.61
2019-01-09T02:42:40.604Z,92.84
2019-01-09T02:45:09.394Z,92.79
2019-01-09T02:47:38.192Z,93.13
2019-01-09T02:50:07.562Z,93.17
2019-01-09T02:52:36.296Z,94.10
2019-01-09T02:55:05.759Z,94.10
2019-01-09T02:57:34.563Z,93.15
2019-01-09T03:00:03.755Z,93.51
2019-01-09T03:02:32.456Z,93.72
2019-01-09T03:05:01.238Z,93.94
2019-01-09T03:07:30.029Z,93.60
2019-01-09T03:09:58.646Z,93.33
2019-01-09T03:12:27.383Z,94.00
2019-01-09T03:14:55.999Z,93.94
2019-01-09T03:17:24.648Z,93.37
2019-01-09T03:19:53.302Z,93.55
2019-01-09T03:22:22.026Z,93.53
2019-01-09T03:24:50.652Z,93.94
2019-01-09T03:27:19.373Z,94.68
2019-01-09T03:29:48.010Z,95.10
2019-01-09T03:32:16.874Z,95.93
2019-01-09T03:34:45.621Z,95.66
2019-01-09T03:37:14.402Z,96.34
2019-01-09T03:39:43.093Z,96.03
2019-01-09T03:42:11.791Z,94.85
2019-01-09T03:44:40.510Z,95.27
2019-01-09T03:47:09.248Z,95.79
2019-01-09T03:49:37.967Z,96.61
2019-01-09T03:52:06.683Z,96.28
2019-01-09T03:54:35.455Z,95.33
2019-01-09T03:57:04.101Z,95.44
2019-01-09T03:59:32.860Z,94.42
2019-01-09T04:02:01.465Z,95.11
2019-01-09T04:04:30.127Z,94.59
2019-01-09T04:06:58.790Z,94.45
2019-01-09T04:09:27.453Z,92.87
2019-01-09T04:11:56.179Z,94.05
2019-01-09T04:14:24.808Z,93.66
2019-01-09T04:16:53.447Z,92.38
2019-01-09T04:19:22.159Z,92.60
2019-01-09T04:21:50.843Z,92.09
2019-01-09T04:24:19.569Z,93.23
2019-01-09T04:26:48.308Z,93.03
2019-01-09T04:29:17.078Z,92.53
2019-01-09T04:31:45.806Z,92.57
2019-01-09T04:34:14.548Z,91.45
2019-01-09T04:36:51.384Z,89.94
2019-01-09T04:39:13.689Z,88.88
2019-01-09T04:41:42.532Z,87.70
2019-01-09T04:44:11.300Z,87.14
2019-01-09T04:46:40.036Z,86.72
2019-01-09T04:49:08.828Z,85.52
2019-01-09T04:51:37.507Z,85.78
2019-01-09T04:54:06.240Z,86.10
2019-01-09T04:56:34.857Z,85.47
2019-01-09T04:59:03.591Z,85.11
2019-01-09T05:01:32.266Z,83.95
2019-01-09T05:04:00.988Z,84.03
2019-01-09T05:06:29.618Z,84.70
2019-01-09T05:08:58.253Z,85.80
2019-01-09T05:11:26.942Z,85.06
2019-01-09T05:13:55.566Z,85.47
2019-01-09T05:16:24.238Z,85.99
2019-01-09T05:18:52.853Z,86.28
2019-01-09T05:21:21.519Z,86.79
2019-01-09T05:23:50.174Z,88.62
2019-01-09T05:26:18.943Z,89.63
2019-01-09T05:28:47.617Z,90.19
2019-01-09T05:31:16.293Z,90.66
2019-01-09T05:33:45.009Z,90.83
2019-01-09T05:36:13.780Z,90.33
2019-01-09T05:38:42.470Z,90.81
2019-01-09T05:41:11.176Z,90.04
2019-01-09T05:43:39.875Z,90.67
2019-01-09T05:48:28.645Z,90.33
2019-01-09T05:50:57.339Z,90.61
2019-01-09T05:53:25.954Z,89.54
2019-01-09T05:58:29.385Z,90.40
2019-01-09T06:00:58.075Z,89.36
2019-01-09T06:03:26.805Z,90.12
2019-01-09T06:05:55.620Z,88.07
2019-01-09T06:08:24.349Z,87.93
2019-01-09T06:10:53.049Z,88.00
2019-01-09T06:13:21.740Z,86.47
2019-01-09T06:15:50.375Z,85.03
2019-01-09T06:18:19.071Z,84.30
2019-01-09T06:20:47.792Z,84.99
2019-01-09T06:23:16.456Z,85.27
2019-01-09T06:25:45.148Z,84.99
2019-01-09T06:28:13.758Z,84.83
2019-01-09T06:33:30.200Z,84.51
2019-01-09T06:35:58.956Z,84.44
2019-01-09T06:38:27.621Z,84.99
2019-01-09T06:40:56.255Z,83.37
2019-01-09T06:43:24.938Z,83.71
2019-01-09T06:45:53.550Z,83.98
2019-01-09T06:48:22.205Z,83.46
2019-01-09T06:50:50.881Z,79.44
2019-01-09T06:53:19.510Z,78.65
2019-01-09T06:55:48.308Z,77.66
2019-01-09T06:58:16.929Z,75.52
2019-01-09T07:00:45.579Z,75.80
2019-01-09T07:03:14.251Z,75.72
2019-01-09T07:05:42.903Z,75.07
2019-01-09T07:08:11.529Z,75.00
2019-01-09T07:10:40.166Z,75.21
2019-01-09T07:13:08.786Z,74.86
2019-01-09T07:15:37.532Z,74.88
2019-01-09T07:18:06.248Z,74.34
2019-01-09T07:20:34.982Z,74.68
2019-01-09T07:23:03.732Z,75.77
2019-01-09T07:25:32.443Z,77.58
2019-01-09T07:28:01.266Z,77.16
2019-01-09T07:30:29.934Z,76.10
2019-01-09T07:32:58.750Z,75.60
2019-01-09T07:35:27.495Z,75.31
2019-01-09T07:37:56.133Z,74.09
2019-01-09T07:40:24.784Z,73.67
2019-01-09T07:42:53.372Z,73.75
2019-01-09T07:45:22.033Z,72.20
2019-01-09T07:47:50.699Z,72.66
2019-01-09T07:50:19.413Z,73.13
2019-01-09T07:52:48.050Z,72.60
2019-01-09T07:55:16.729Z,72.25
2019-01-09T07:57:45.366Z,71.76
2019-01-09T08:00:14.050Z,72.36
2019-01-09T08:02:42.655Z,73.40
2019-01-09T08:05:11.546Z,73.83
2019-01-09T08:07:40.169Z,73.83
2019-01-09T08:10:10.059Z,72.96
2019-01-09T08:12:38.731Z,72.90
2019-01-09T08:15:08.167Z,74.96
2019-01-09T08:17:36.794Z,75.05
2019-01-09T08:20:06.068Z,77.29
2019-01-09T08:22:34.688Z,76.75
2019-01-09T08:25:03.403Z,78.42
2019-01-09T08:27:32.146Z,78.18
2019-01-09T08:30:00.810Z,78.92
2019-01-09T08:32:29.441Z,78.36
2019-01-09T08:34:58.061Z,77.99
2019-01-09T08:37:26.665Z,78.97
2019-01-09T08:39:55.288Z,79.16
2019-01-09T08:42:24.009Z,78.30
2019-01-09T08:44:52.670Z,78.40
2019-01-09T08:47:21.326Z,79.63
2019-01-09T08:49:49.973Z,80.68
2019-01-09T08:52:19.359Z,79.97
2019-01-09T08:54:47.986Z,81.00
2019-01-09T08:57:16.609Z,81.07
2019-01-09T08:59:45.226Z,82.36
2019-01-09T09:02:13.893Z,81.36
2019-01-09T09:04:42.652Z,81.50
2019-01-09T09:07:11.372Z,81.96
2019-01-09T09:09:39.993Z,81.00
2019-01-09T09:12:08.714Z,80.53
2019-01-09T09:14:37.464Z,79.54
2019-01-09T09:17:06.293Z,77.46
2019-01-09T09:19:35.033Z,76.82
2019-01-09T09:22:03.827Z,75.62
2019-01-09T09:24:32.579Z,73.98
2019-01-09T09:27:01.302Z,74.06
2019-01-09T09:29:32.029Z,71.25
2019-01-09T09:32:00.588Z,71.01
2019-01-09T09:34:48.655Z,70.32
2019-01-09T09:37:19.060Z,70.92
2019-01-09T09:39:48.170Z,74.40
2019-01-09T09:42:16.866Z,76.67
2019-01-09T09:44:45.622Z,76.89
2019-01-09T09:47:14.421Z,76.87
2019-01-09T09:49:43.220Z,77.02
2019-01-09T09:52:12.102Z,77.49
2019-01-09T09:54:40.865Z,78.83
2019-01-09T09:57:09.546Z,78.62
2019-01-09T09:59:38.320Z,79.92
2019-01-09T10:02:07.119Z,80.25
2019-01-09T10:04:35.893Z,80.36
2019-01-09T10:07:04.877Z,79.91
2019-01-09T10:09:35.916Z,81.06
2019-01-09T10:12:04.969Z,80.33
2019-01-09T10:14:34.294Z,79.03
2019-01-09T10:17:03.241Z,79.67
2019-01-09T10:19:34.851Z,78.78
2019-01-09T10:22:03.847Z,78.80
2019-01-09T10:24:32.774Z,78.65
2019-01-09T10:27:02.097Z,77.30
2019-01-09T10:29:31.033Z,77.76
2019-01-09T10:31:59.960Z,76.40
2019-01-09T10:34:28.952Z,73.95
2019-01-09T10:36:57.828Z,71.10
2019-01-09T10:39:26.576Z,69.92
2019-01-09T10:41:55.824Z,67.10
2019-01-09T10:44:24.704Z,68.70
2019-01-09T10:46:53.729Z,68.29
2019-01-09T10:49:22.446Z,68.02
2019-01-09T10:51:51.434Z,67.77
2019-01-09T10:54:20.261Z,66.46
2019-01-09T10:56:49.163Z,65.88
2019-01-09T10:59:17.971Z,66.76
2019-01-09T11:01:47.018Z,65.94
2019-01-09T11:07:24.145Z,64.57
2019-01-09T11:09:52.920Z,63.55
2019-01-09T11:12:21.776Z,63.46
2019-01-09T11:14:50.624Z,64.20
2019-01-09T11:17:19.464Z,64.31
2019-01-09T11:19:49.015Z,62.40
2019-01-09T11:22:18.073Z,62.38
2019-01-09T11:24:47.040Z,62.00
2019-01-09T11:27:16.203Z,60.69
2019-01-09T11:29:44.950Z,61.45
2019-01-09T11:32:13.830Z,61.96
2019-01-09T11:34:42.941Z,62.02
2019-01-09T11:37:11.807Z,62.78
2019-01-09T11:39:40.822Z,63.56
2019-01-09T11:42:09.763Z,63.67
2019-01-09T11:44:38.617Z,63.57
2019-01-09T11:47:47.061Z,63.16
2019-01-09T11:50:16.055Z,62.20
2019-01-09T11:52:45.598Z,62.00
2019-01-09T11:55:14.960Z,61.84
2019-01-09T11:57:43.697Z,61.96
2019-01-09T12:00:18.848Z,63.30
2019-01-09T12:02:47.513Z,63.06
2019-01-09T12:05:16.265Z,62.74
2019-01-09T12:07:46.962Z,61.19
2019-01-09T12:10:17.095Z,61.23
2019-01-09T12:12:46.308Z,60.57
2019-01-09T12:15:15.914Z,60.48
2019-01-09T12:17:44.667Z,61.51
2019-01-09T12:23:40.873Z,60.77
2019-01-09T12:26:28.717Z,60.73
2019-01-09T12:28:57.486Z,60.60
2019-01-09T12:31:26.221Z,61.26
2019-01-09T12:33:54.926Z,60.55
2019-01-09T12:36:23.721Z,60.79
2019-01-09T12:38:52.608Z,60.03
2019-01-09T12:41:21.490Z,58.74
2019-01-09T12:43:50.318Z,58.49
2019-01-09T12:46:19.167Z,58.00
2019-01-09T12:48:48.079Z,57.13
2019-01-09T12:51:16.813Z,56.33
2019-01-09T12:53:45.617Z,55.65
2019-01-09T12:56:14.334Z,55.75
2019-01-09T12:58:43.058Z,56.13
2019-01-09T13:01:11.782Z,57.28
2019-01-09T13:03:40.481Z,57.00
2019-01-09T13:06:09.507Z,57.36
2019-01-09T13:08:38.326Z,57.73
2019-01-09T13:11:27.849Z,58.02
2019-01-09T13:13:56.601Z,59.29
2019-01-09T13:16:25.236Z,59.93
2019-01-09T13:18:54.069Z,59.44
2019-01-09T13:21:22.705Z,60.02
2019-01-09T13:23:51.430Z,60.39
2019-01-09T13:26:20.079Z,60.84
2019-01-09T13:28:48.763Z,60.96
2019-01-09T13:31:17.456Z,61.32
2019-01-09T13:33:46.119Z,61.28
2019-01-09T13:36:17.133Z,62.00
2019-01-09T13:38:45.850Z,62.25
2019-01-09T13:41:14.484Z,61.69
2019-01-09T13:43:43.315Z,61.65
2019-01-09T13:46:31.073Z,61.36
2019-01-09T13:48:59.883Z,61.63
2019-01-09T13:51:28.698Z,61.75
2019-01-09T13:53:57.468Z,61.68
2019-01-09T13:56:26.202Z,61.89
2019-01-09T13:58:55.031Z,62.74
2019-01-09T14:01:23.860Z,61.98
2019-01-09T14:03:52.608Z,61.56
2019-01-09T14:06:21.501Z,62.16
2019-01-09T14:08:50.131Z,62.01
2019-01-09T14:11:21.148Z,62.21
2019-01-09T14:13:49.801Z,62.34
2019-01-09T14:16:18.494Z,61.71
2019-01-09T14:18:55.193Z,62.00
2019-01-09T14:21:19.921Z,60.81
2019-01-09T14:23:48.714Z,61.85
2019-01-09T14:26:17.563Z,62.16
2019-01-09T14:28:47.189Z,62.15
2019-01-09T14:31:19.420Z,61.83
2019-01-09T14:33:48.169Z,62.51
2019-01-09T14:36:17.073Z,62.20
2019-01-09T14:38:45.952Z,63.16
2019-01-09T14:41:14.685Z,62.66
2019-01-09T14:43:43.556Z,62.60
2019-01-09T14:46:12.367Z,63.28
2019-01-09T14:48:41.138Z,63.09
2019-01-09T14:51:10.038Z,63.14
2019-01-09T14:53:38.828Z,63.65
2019-01-09T14:56:09.891Z,64.16
2019-01-09T14:58:38.578Z,64.25
2019-01-09T15:01:07.560Z,65.03
2019-01-09T15:03:36.265Z,64.95
2019-01-09T15:06:05.193Z,65.30
2019-01-09T15:08:33.923Z,66.05
2019-01-09T15:11:02.774Z,66.31
2019-01-09T15:13:31.498Z,66.38
2019-01-09T15:16:00.405Z,66.03
2019-01-09T15:18:29.267Z,66.02
2019-01-09T15:20:58.076Z,67.02
2019-01-09T15:23:26.944Z,66.38
2019-01-09T15:25:58.197Z,66.98
2019-01-09T15:28:27.188Z,66.87
2019-01-09T15:30:55.934Z,66.89
2019-01-09T15:33:24.941Z,67.22
2019-01-09T15:35:53.818Z,67.76
2019-01-09T15:38:22.801Z,68.34
2019-01-09T15:40:51.698Z,68.71
2019-01-09T15:43:20.572Z,69.16
2019-01-09T15:45:49.674Z,68.74
2019-01-09T15:48:18.536Z,67.62
2019-01-09T15:50:47.690Z,67.76
2019-01-09T15:53:16.581Z,66.80
2019-01-09T15:58:53.695Z,65.58
2019-01-09T16:01:22.381Z,64.64
2019-01-09T16:03:50.946Z,64.68
2019-01-09T16:06:19.639Z,64.52
2019-01-09T16:08:48.274Z,64.81
2019-01-09T16:11:16.929Z,64.41
2019-01-09T16:14:05.197Z,63.94
2019-01-09T16:16:53.092Z,63.70
2019-01-09T16:19:21.702Z,63.86
2019-01-09T16:21:50.467Z,63.62
2019-01-09T16:36:32.631Z,62.86
2019-01-09T16:39:01.258Z,63.49
2019-01-09T16:41:29.996Z,63.73
2019-01-09T16:43:58.927Z,63.74
2019-01-09T16:46:27.545Z,64.69
2019-01-09T16:48:56.279Z,65.32
2019-01-09T16:51:25.049Z,64.33
2019-01-09T16:53:53.712Z,64.86
2019-01-09T16:56:22.510Z,65.20
2019-01-09T16:58:51.455Z,65.35
2019-01-09T17:01:20.319Z,65.17
2019-01-09T17:03:49.209Z,65.29
2019-01-09T17:06:18.145Z,65.53
2019-01-09T17:08:46.904Z,65.95
2019-01-09T17:11:30.782Z,65.72
2019-01-09T17:17:16.385Z,65.45
2019-01-09T17:25:20.150Z,65.76
2019-01-09T17:27:49.643Z,66.11
2019-01-09T17:39:38.581Z,66.47
2019-01-09T17:42:33.653Z,66.11
2019-01-09T17:54:50.566Z,66.14
2019-01-09T17:57:15.913Z,66.55
2019-01-09T18:00:05.842Z,66.60
2019-01-09T18:14:23.125Z,66.72
2019-01-09T18:29:33.277Z,66.80
2019-01-09T18:35:49.544Z,66.52
2019-01-09T18:44:41.709Z,66.19
2019-01-09T18:48:13.255Z,65.64
2019-01-09T18:53:43.153Z,66.26
2019-01-09T18:56:14.685Z,66.20
2019-01-09T19:13:57.064Z,66.77
2019-01-09T19:16:12.078Z,66.73
2019-01-09T19:19:02.951Z,66.93
2019-01-09T19:27:33.012Z,67.49
2019-01-09T19:30:36.877Z,67.13
2019-01-09T19:36:09.453Z,67.34
2019-01-09T19:39:36.291Z,67.60
2019-01-09T19:56:28.230Z,67.57
2019-01-09T20:02:12.229Z,68.20
2019-01-09T20:04:42.735Z,67.98
2019-01-09T20:10:40.395Z,68.54
2019-01-09T20:13:30.727Z,68.60
2019-01-09T20:16:03.439Z,68.72
2019-01-09T20:18:34.944Z,69.44
2019-01-09T20:21:22.124Z,69.88
2019-01-09T20:30:03.631Z,70.58
2019-01-09T20:45:05.662Z,70.88
2019-01-09T20:50:37.057Z,70.74
2019-01-09T20:59:17.879Z,71.07
2019-01-09T21:01:49.506Z,71.13
2019-01-09T21:10:26.805Z,71.01
2019-01-09T21:19:18.624Z,70.91
2019-01-09T21:27:30.061Z,70.93
2019-01-09T21:30:19.536Z,70.83
2019-01-09T21:41:53.717Z,71.21
2019-01-09T21:56:15.744Z,71.04
2019-01-09T22:01:49.962Z,70.94
2019-01-09T22:10:42.170Z,71.48
2019-01-09T22:16:08.440Z,71.86
2019-01-09T22:21:55.862Z,71.71
2019-01-09T22:27:30.472Z,71.54
2019-01-09T22:43:00.251Z,71.86
2019-01-09T22:51:28.979Z,71.63
2019-01-09T22:54:36.337Z,71.53
2019-01-09T22:57:01.604Z,71.44
2019-01-09T23:00:14.351Z,71.60
2019-01-09T23:06:00.735Z,71.59
2019-01-09T23:40:01.416Z,71.80
2019-01-09T23:45:27.084Z,71.62
2019-01-09T23:54:30.355Z,71.93
2019-01-09T23:57:03.939Z,71.70
2019-01-09T23:59:34.847Z,72.27
